Time;durP1;ratioP1;P1;durP2;ratioP2;P2;SDS_P1;SDS_P2;PMS_P1;PMS_P2;Temp;Humidity;BMP_temperature;BMP_pressure;BME280_temperature;BME280_humidity;BME280_pressure;Samples;Min_cycle;Max_cycle;Signal;HPM_P1;HPM_P2
2024/03/16 05:58:12;;;;;;;2.47;0.80;;;10.20;97.90;;;;;;4842082;23;20422;-78
2024/03/16 06:00:14;;;;;;;4.15;1.00;;;10.20;97.80;;;;;;4064011;29;20100;-79
2024/03/16 06:02:16;;;;;;;2.28;0.60;;;10.30;97.80;;;;;;4080856;29;20552;-77
2024/03/16 06:04:19;;;;;;;3.22;0.68;;;10.30;97.90;;;;;;4068811;29;20104;-77
2024/03/16 06:06:21;;;;;;;3.20;0.73;;;10.20;97.90;;;;;;4069095;29;20052;-78
2024/03/16 06:08:23;;;;;;;1.67;0.60;;;10.20;97.90;;;;;;4053414;29;20048;-78
2024/03/16 06:10:26;;;;;;;4.63;0.80;;;10.20;97.90;;;;;;4053543;29;20052;-75
2024/03/16 06:12:30;;;;;;;3.20;0.65;;;10.20;97.90;;;;;;4051232;29;20064;-79
2024/03/16 06:14:33;;;;;;;4.32;0.70;;;10.20;97.80;;;;;;4054472;29;20136;-77
2024/03/16 06:16:34;;;;;;;3.92;0.85;;;10.30;97.90;;;;;;4053452;29;20478;-76
2024/03/16 06:18:39;;;;;;;4.47;0.70;;;10.20;97.90;;;;;;4052777;29;20091;-76
2024/03/16 06:20:40;;;;;;;3.07;0.70;;;10.30;98.00;;;;;;4064122;29;20045;-76
2024/03/16 06:22:44;;;;;;;2.72;0.82;;;10.20;98.20;;;;;;4054750;29;20052;-79
2024/03/16 06:24:47;;;;;;;3.67;0.80;;;10.30;98.60;;;;;;4069413;29;20526;-78
2024/03/16 06:26:54;;;;;;;11.57;5.35;;;10.20;98.40;;;;;;4064310;29;20166;-77
2024/03/16 06:29:05;;;;;;;3.90;0.88;;;10.30;98.40;;;;;;4054811;29;20084;-78
2024/03/16 06:31:10;;;;;;;4.40;1.30;;;10.30;98.30;;;;;;4073725;29;20047;-79
2024/03/16 06:33:21;;;;;;;4.38;0.95;;;10.30;98.40;;;;;;4054151;29;20398;-79
2024/03/16 06:35:22;;;;;;;3.42;1.42;;;10.30;98.50;;;;;;4056376;29;20443;-79
2024/03/16 06:37:24;;;;;;;3.42;1.00;;;10.30;98.60;;;;;;4052770;29;20092;-79
2024/03/16 06:39:26;;;;;;;4.57;1.42;;;10.30;98.50;;;;;;4065818;29;20282;-78
2024/03/16 06:41:28;;;;;;;2.60;0.82;;;10.30;98.60;;;;;;4068281;29;20051;-77
2024/03/16 06:43:29;;;;;;;4.55;1.00;;;10.30;98.60;;;;;;4052325;29;20455;-78
2024/03/16 06:45:31;;;;;;;5.38;1.20;;;10.30;98.60;;;;;;4071672;29;20130;-77
2024/03/16 06:47:33;;;;;;;4.40;1.02;;;10.30;98.50;;;;;;4084052;29;20122;-77
2024/03/16 06:49:35;;;;;;;4.00;1.10;;;10.40;98.50;;;;;;4075603;29;20051;-74
2024/03/16 06:51:38;;;;;;;3.33;1.10;;;10.40;98.40;;;;;;4083909;29;20102;-77
2024/03/16 06:53:40;;;;;;;3.30;0.90;;;10.40;98.30;;;;;;4082238;29;20071;-78
2024/03/16 06:55:48;;;;;;;7.18;2.50;;;10.40;98.30;;;;;;4052681;29;20052;-77
2024/03/16 06:57:50;;;;;;;5.93;1.83;;;10.50;98.50;;;;;;4085353;29;20055;-78
2024/03/16 06:59:52;;;;;;;4.75;1.20;;;10.50;98.20;;;;;;4048910;29;20048;-75
2024/03/16 07:01:54;;;;;;;3.92;0.90;;;10.50;98.10;;;;;;4052005;29;20081;-77
2024/03/16 07:03:56;;;;;;;4.55;0.95;;;10.50;98.00;;;;;;4067158;29;20506;-77
2024/03/16 07:05:58;;;;;;;4.57;1.23;;;10.60;98.00;;;;;;4052111;29;20052;-78
2024/03/16 07:07:59;;;;;;;6.72;1.63;;;10.60;98.00;;;;;;4066505;29;20070;-75
2024/03/16 07:10:05;;;;;;;2.83;0.90;;;10.80;97.80;;;;;;4066303;29;20095;-77
2024/03/16 07:12:08;;;;;;;4.00;1.20;;;10.80;97.50;;;;;;4051514;29;20499;-76
2024/03/16 07:14:10;;;;;;;2.75;0.93;;;10.80;97.20;;;;;;4067762;29;20095;-74
2024/03/16 07:16:14;;;;;;;3.60;0.90;;;10.80;97.10;;;;;;4066578;29;20058;-78
2024/03/16 07:18:17;;;;;;;2.75;0.93;;;10.90;97.20;;;;;;4065481;29;20151;-78
2024/03/16 07:20:19;;;;;;;4.10;1.10;;;10.90;97.10;;;;;;4067057;29;20048;-78
2024/03/16 07:22:21;;;;;;;5.60;1.00;;;10.90;97.20;;;;;;4067051;29;20080;-79
2024/03/16 07:24:23;;;;;;;4.70;1.10;;;10.90;97.00;;;;;;4066789;29;20048;-77
2024/03/16 07:26:25;;;;;;;4.80;1.27;;;10.90;96.90;;;;;;4066739;29;20048;-73
2024/03/16 07:28:27;;;;;;;4.20;0.95;;;10.90;97.10;;;;;;4067063;29;20562;-75
2024/03/16 07:30:29;;;;;;;5.07;1.05;;;11.00;97.40;;;;;;4065306;29;20084;-75
2024/03/16 07:32:31;;;;;;;6.22;1.38;;;11.00;97.60;;;;;;4049475;29;20096;-75
2024/03/16 07:34:34;;;;;;;5.43;1.00;;;11.00;97.40;;;;;;4065469;29;20830;-74
2024/03/16 07:36:36;;;;;;;2.97;1.00;;;11.10;97.10;;;;;;4064748;29;20099;-73
2024/03/16 07:38:38;;;;;;;4.13;1.13;;;11.00;97.30;;;;;;4064927;29;20056;-74
2024/03/16 07:40:40;;;;;;;3.63;1.00;;;11.00;97.20;;;;;;4049160;29;20055;-75
2024/03/16 07:42:42;;;;;;;5.30;1.20;;;11.00;97.20;;;;;;4064535;29;20052;-74
2024/03/16 07:44:44;;;;;;;3.70;1.15;;;11.00;97.00;;;;;;4049171;29;20124;-74
2024/03/16 07:46:46;;;;;;;2.75;0.98;;;11.00;97.30;;;;;;4058836;29;20067;-76
2024/03/16 07:48:49;;;;;;;4.68;1.20;;;11.10;97.00;;;;;;4065259;29;20052;-78
2024/03/16 07:50:51;;;;;;;3.47;0.90;;;11.10;97.00;;;;;;4064473;29;20048;-77
2024/03/16 07:52:52;;;;;;;3.13;1.00;;;11.10;96.90;;;;;;4065208;29;20096;-77
2024/03/16 07:54:54;;;;;;;4.63;1.00;;;11.10;96.90;;;;;;4064797;29;20078;-75
2024/03/16 07:56:58;;;;;;;5.22;1.58;;;11.20;96.60;;;;;;4048648;29;20060;-76
2024/03/16 07:59:00;;;;;;;4.38;1.00;;;11.20;96.80;;;;;;4064458;29;20429;-75
2024/03/16 08:01:04;;;;;;;4.40;1.23;;;11.30;96.90;;;;;;4057233;29;20405;-77
2024/03/16 08:03:06;;;;;;;3.75;0.80;;;11.30;97.20;;;;;;4060530;29;20082;-77
2024/03/16 08:05:11;;;;;;;5.53;1.20;;;11.20;96.60;;;;;;4064287;29;20044;-75
2024/03/16 08:07:12;;;;;;;5.40;1.40;;;11.20;96.50;;;;;;4045537;29;20472;-77
2024/03/16 08:09:14;;;;;;;3.22;1.00;;;11.20;96.90;;;;;;4060890;29;20063;-76
2024/03/16 08:11:16;;;;;;;2.60;0.98;;;11.30;96.50;;;;;;4079740;29;20135;-76
2024/03/16 08:13:18;;;;;;;3.20;0.90;;;11.30;96.40;;;;;;4065533;29;20167;-75
2024/03/16 08:15:21;;;;;;;3.38;0.85;;;11.40;96.50;;;;;;4068037;29;20636;-76
2024/03/16 08:17:23;;;;;;;6.13;1.10;;;11.40;96.20;;;;;;4052787;29;20052;-74
2024/03/16 08:19:25;;;;;;;4.07;1.25;;;11.50;96.40;;;;;;4068216;29;20502;-77
2024/03/16 08:21:27;;;;;;;2.47;0.82;;;11.60;95.50;;;;;;4052891;29;20056;-74
2024/03/16 08:23:29;;;;;;;3.97;1.15;;;11.70;95.50;;;;;;4067873;29;20111;-77
2024/03/16 08:25:33;;;;;;;4.60;1.00;;;11.70;95.30;;;;;;4053152;29;20056;-77
2024/03/16 08:27:36;;;;;;;3.35;0.80;;;11.70;95.00;;;;;;4068189;29;20083;-76
2024/03/16 08:29:38;;;;;;;4.40;1.08;;;11.70;95.00;;;;;;4037243;29;20088;-80
2024/03/16 08:31:40;;;;;;;5.15;1.02;;;11.70;94.70;;;;;;4046814;29;20052;-79
2024/03/16 08:33:42;;;;;;;5.05;1.00;;;11.70;94.90;;;;;;4052788;29;20502;-78
2024/03/16 08:35:44;;;;;;;4.05;1.00;;;11.80;94.70;;;;;;4036959;29;20113;-78
2024/03/16 08:37:46;;;;;;;5.35;0.98;;;11.80;94.60;;;;;;4053644;29;20384;-79
2024/03/16 08:39:48;;;;;;;3.95;0.93;;;11.80;94.50;;;;;;4037563;29;20140;-78
2024/03/16 08:41:51;;;;;;;3.10;0.70;;;11.90;94.60;;;;;;4054768;29;20052;-78
2024/03/16 08:43:52;;;;;;;4.55;0.90;;;11.90;94.50;;;;;;4050012;29;20105;-79
2024/03/16 08:45:54;;;;;;;3.00;0.70;;;11.90;94.40;;;;;;4062681;29;20442;-79
2024/03/16 08:47:55;;;;;;;3.25;0.93;;;11.80;94.50;;;;;;4051052;29;20095;-79
2024/03/16 08:49:57;;;;;;;4.63;1.00;;;11.80;94.80;;;;;;4052215;29;20057;-78
2024/03/16 08:52:00;;;;;;;2.78;0.88;;;11.90;94.80;;;;;;4051754;29;20152;-78
2024/03/16 08:54:02;;;;;;;3.53;1.10;;;11.90;94.90;;;;;;4064661;29;20524;-77
2024/03/16 08:56:06;;;;;;;5.22;1.25;;;11.90;95.10;;;;;;4061906;29;20584;-79
2024/03/16 08:58:08;;;;;;;6.45;1.17;;;11.90;95.40;;;;;;4047962;29;20041;-77
2024/03/16 09:00:12;;;;;;;3.72;1.10;;;11.90;95.30;;;;;;4036853;29;20057;-78
2024/03/16 09:02:14;;;;;;;3.08;1.00;;;11.80;95.80;;;;;;4037979;29;20475;-80
2024/03/16 09:04:16;;;;;;;4.57;1.13;;;11.60;96.50;;;;;;4035704;29;20049;-78
2024/03/16 09:06:18;;;;;;;4.38;0.93;;;11.50;96.80;;;;;;4068515;29;20503;-78
2024/03/16 09:08:22;;;;;;;5.00;1.10;;;11.40;97.70;;;;;;4075033;29;20060;-79
2024/03/16 09:10:24;;;;;;;5.57;1.20;;;11.40;98.60;;;;;;4026639;29;20476;-77
2024/03/16 09:12:26;;;;;;;3.90;1.08;;;11.30;99.40;;;;;;4033862;29;20049;-77
2024/03/16 09:14:28;;;;;;;3.88;0.85;;;11.20;99.00;;;;;;4051593;29;20083;-76
2024/03/16 09:16:30;;;;;;;2.05;0.60;;;11.10;98.90;;;;;;4067221;29;20553;-78
2024/03/16 09:18:33;;;;;;;2.17;0.73;;;11.00;98.50;;;;;;4051882;29;20143;-79
2024/03/16 09:20:35;;;;;;;3.08;0.50;;;10.90;99.00;;;;;;4052114;29;20048;-79
2024/03/16 09:22:37;;;;;;;2.40;0.55;;;10.90;98.00;;;;;;4035165;29;20122;-77
2024/03/16 09:24:39;;;;;;;2.40;0.55;;;10.90;98.50;;;;;;4038602;29;20502;-76
2024/03/16 09:26:41;;;;;;;1.77;0.60;;;10.80;99.00;;;;;;4035185;29;20052;-76
2024/03/16 09:28:43;;;;;;;1.85;0.40;;;10.90;98.80;;;;;;4069091;29;20048;-80
2024/03/16 09:30:44;;;;;;;2.28;0.50;;;10.80;98.70;;;;;;4061610;29;20123;-79
2024/03/16 09:32:46;;;;;;;2.10;0.40;;;10.80;98.40;;;;;;4067380;29;20051;-75
2024/03/16 09:34:49;;;;;;;1.10;0.22;;;10.80;98.40;;;;;;4072936;29;20477;-77
2024/03/16 09:36:51;;;;;;;2.28;0.50;;;10.90;98.60;;;;;;4066029;29;20065;-78
2024/03/16 09:38:53;;;;;;;3.20;0.50;;;10.80;98.50;;;;;;4064811;29;20155;-78
2024/03/16 09:40:55;;;;;;;7.47;2.35;;;10.80;99.00;;;;;;4039395;29;20702;-75
2024/03/16 09:42:58;;;;;;;2.08;0.50;;;10.80;99.10;;;;;;4036063;29;20049;-77
2024/03/16 09:45:06;;;;;;;1.73;0.45;;;10.80;98.90;;;;;;4046711;29;20057;-77
2024/03/16 09:47:08;;;;;;;1.95;0.60;;;10.80;99.50;;;;;;4035776;29;20060;-78
2024/03/16 09:49:10;;;;;;;3.72;0.55;;;10.80;99.90;;;;;;4046993;29;20062;-76
2024/03/16 09:51:15;;;;;;;1.40;0.40;;;10.80;99.70;;;;;;4064956;29;20052;-79
2024/03/16 09:53:18;;;;;;;0.52;0.30;;;10.80;99.90;;;;;;4045200;29;20168;-77
2024/03/16 09:55:23;;;;;;;2.00;0.47;;;10.80;99.90;;;;;;4023819;29;20045;-79
2024/03/16 09:57:28;;;;;;;1.58;0.38;;;10.80;99.90;;;;;;4059517;29;20052;-78
2024/03/16 09:59:31;;;;;;;2.35;0.50;;;10.70;99.90;;;;;;4061770;29;20193;-79
2024/03/16 10:01:34;;;;;;;2.45;0.52;;;10.70;99.90;;;;;;4076694;29;20437;-76
2024/03/16 10:03:36;;;;;;;4.95;0.73;;;10.70;99.90;;;;;;4049461;29;20101;-80
2024/03/16 10:05:38;;;;;;;2.50;0.50;;;10.90;99.90;;;;;;4071997;29;20056;-79
2024/03/16 10:07:40;;;;;;;1.33;0.50;;;11.00;99.90;;;;;;4043052;29;20514;-79
2024/03/16 10:09:53;;;;;;;2.30;0.50;;;10.90;99.90;;;;;;4059055;29;20064;-77
2024/03/16 10:12:02;;;;;;;2.40;0.68;;;11.10;99.90;;;;;;4045089;29;20091;-80
2024/03/16 10:14:05;;;;;;;2.45;0.52;;;11.20;99.90;;;;;;4047703;29;20506;-78
2024/03/16 10:16:07;;;;;;;2.00;0.50;;;11.20;99.90;;;;;;4069888;29;20788;-79
2024/03/16 10:18:11;;;;;;;3.15;0.60;;;11.10;99.70;;;;;;4049526;29;20052;-78
2024/03/16 10:20:15;;;;;;;2.47;0.60;;;11.10;99.90;;;;;;4049431;29;20058;-78
2024/03/16 10:22:17;;;;;;;2.55;0.73;;;11.20;99.90;;;;;;4058292;29;20063;-78
2024/03/16 10:24:20;;;;;;;2.13;0.43;;;11.20;99.90;;;;;;4065485;29;20048;-78
2024/03/16 10:26:22;;;;;;;2.28;0.57;;;11.30;99.90;;;;;;4064333;29;20139;-79
2024/03/16 10:28:25;;;;;;;2.45;0.65;;;11.40;99.90;;;;;;4048556;29;20108;-80
2024/03/16 10:30:28;;;;;;;2.80;0.70;;;11.70;99.90;;;;;;4041839;29;20168;-78
2024/03/16 10:32:30;;;;;;;1.95;0.60;;;11.80;99.90;;;;;;4049189;29;20049;-77
2024/03/16 10:34:34;;;;;;;1.30;0.50;;;11.90;99.70;;;;;;4052117;29;20048;-80
2024/03/16 10:36:36;;;;;;;1.35;0.52;;;12.00;99.80;;;;;;4044971;29;20155;-78
2024/03/16 10:38:41;;;;;;;1.38;0.47;;;11.90;99.30;;;;;;4048226;29;20573;-79
2024/03/16 10:40:43;;;;;;;2.13;0.50;;;12.00;99.20;;;;;;4050841;29;20073;-79
2024/03/16 10:42:45;;;;;;;1.92;0.30;;;12.00;99.40;;;;;;4048267;29;20056;-78
2024/03/16 10:44:46;;;;;;;2.00;0.60;;;11.90;98.00;;;;;;4043643;29;20048;-78
2024/03/16 10:46:48;;;;;;;2.30;0.50;;;11.80;98.00;;;;;;4038772;29;20055;-79
2024/03/16 10:48:52;;;;;;;2.35;0.50;;;11.80;98.30;;;;;;4049452;29;20052;-78
2024/03/16 10:50:54;;;;;;;1.75;0.45;;;11.90;98.10;;;;;;4044779;29;20095;-79
2024/03/16 10:52:55;;;;;;;1.90;0.47;;;12.00;97.40;;;;;;4050052;29;20052;-78
2024/03/16 10:54:57;;;;;;;3.20;0.60;;;12.10;97.50;;;;;;4048194;29;20048;-79
2024/03/16 10:56:59;;;;;;;10.02;0.70;;;12.30;96.90;;;;;;4048427;29;20582;-79
2024/03/16 10:59:01;;;;;;;1.52;0.60;;;12.50;96.60;;;;;;4042825;29;20064;-77
2024/03/16 11:01:07;;;;;;;2.85;0.65;;;12.70;96.00;;;;;;4038565;29;20160;-80
2024/03/16 11:03:09;;;;;;;2.75;0.60;;;12.80;95.80;;;;;;4052618;29;20100;-79
2024/03/16 11:05:19;;;;;;;3.30;0.70;;;12.80;95.60;;;;;;4055739;29;20125;-79
2024/03/16 11:07:21;;;;;;;1.83;0.52;;;12.90;95.50;;;;;;4048085;29;20056;-79
2024/03/16 11:11:55;;;;;;;1.95;0.60;;;12.80;93.90;;;;;;4053144;29;20044;-79
2024/03/16 11:14:07;;;;;;;2.25;0.68;;;12.80;94.40;;;;;;4052403;29;20558;-79
2024/03/16 11:16:27;;;;;;;2.05;0.38;;;12.80;95.10;;;;;;4064306;29;20044;-80
2024/03/16 11:18:53;;;;;;;2.25;0.40;;;12.80;94.80;;;;;;4063120;29;20056;-79
2024/03/16 11:20:54;;;;;;;0.60;0.30;;;12.50;95.30;;;;;;4068660;29;20110;-79
2024/03/16 11:22:57;;;;;;;1.40;0.40;;;12.20;95.00;;;;;;4048639;29;20056;-78
2024/03/16 11:24:59;;;;;;;2.58;0.60;;;12.10;95.80;;;;;;4055615;29;20056;-78
2024/03/16 11:27:00;;;;;;;1.48;0.30;;;12.20;95.70;;;;;;4040916;29;20506;-79
2024/03/16 11:29:18;;;;;;;2.80;0.68;;;12.10;95.80;;;;;;4044538;29;20083;-80
2024/03/16 11:31:26;;;;;;;2.05;0.50;;;12.20;95.60;;;;;;4046650;29;20101;-77
2024/03/16 11:33:28;;;;;;;1.52;0.40;;;12.30;95.90;;;;;;4048598;29;20048;-80
2024/03/16 11:35:29;;;;;;;2.28;0.80;;;12.40;94.90;;;;;;4051830;29;20518;-79
2024/03/16 11:37:31;;;;;;;0.93;0.30;;;12.50;94.50;;;;;;4046737;29;20056;-78
2024/03/16 11:39:32;;;;;;;1.52;0.30;;;12.40;93.30;;;;;;4079665;29;20048;-77
2024/03/16 11:41:33;;;;;;;2.00;0.40;;;12.50;93.50;;;;;;4048275;29;20056;-80
2024/03/16 11:43:36;;;;;;;2.13;0.30;;;12.60;93.40;;;;;;4040651;29;20052;-76
2024/03/16 11:45:39;;;;;;;1.52;0.50;;;12.70;92.70;;;;;;4075937;29;20544;-79
2024/03/16 11:47:41;;;;;;;0.55;0.22;;;12.70;92.00;;;;;;4063265;29;20825;-80
2024/03/16 11:49:42;;;;;;;0.88;0.52;;;12.80;92.20;;;;;;4055165;29;20533;-79
2024/03/16 11:51:44;;;;;;;1.02;0.30;;;13.00;92.20;;;;;;4045112;29;20053;-77
2024/03/16 11:53:45;;;;;;;0.88;0.30;;;13.10;92.10;;;;;;4078938;29;20970;-76
2024/03/16 11:55:48;;;;;;;0.73;0.20;;;13.20;91.30;;;;;;4080191;29;20067;-76
2024/03/16 11:57:49;;;;;;;0.85;0.30;;;13.20;90.50;;;;;;4048431;29;20530;-79
2024/03/16 11:59:51;;;;;;;0.98;0.25;;;13.10;90.60;;;;;;4046906;29;20414;-79
2024/03/16 12:01:52;;;;;;;0.75;0.15;;;13.20;90.90;;;;;;4050708;29;20076;-80
2024/03/16 12:03:55;;;;;;;0.40;0.20;;;13.30;91.30;;;;;;4056688;29;20574;-79
2024/03/16 12:05:56;;;;;;;0.38;0.20;;;13.50;91.30;;;;;;4035030;29;20053;-77
2024/03/16 12:07:58;;;;;;;0.85;0.30;;;13.50;90.20;;;;;;4034992;29;20805;-77
2024/03/16 12:10:01;;;;;;;1.30;0.40;;;13.50;89.80;;;;;;4032284;29;20563;-77
2024/03/16 12:12:03;;;;;;;0.70;0.38;;;13.60;90.00;;;;;;4035566;29;20055;-76
2024/03/16 12:14:08;;;;;;;0.82;0.40;;;13.60;88.60;;;;;;4066695;29;20103;-76
2024/03/16 12:16:10;;;;;;;1.75;0.60;;;13.50;86.00;;;;;;4051545;29;20052;-76
2024/03/16 12:18:11;;;;;;;1.48;0.40;;;13.30;86.90;;;;;;4036774;29;20448;-78
2024/03/16 12:20:16;;;;;;;1.83;0.70;;;13.20;85.70;;;;;;4037190;29;20431;-77
2024/03/16 12:22:17;;;;;;;2.03;0.98;;;13.10;86.70;;;;;;4067618;29;20466;-78
2024/03/16 12:24:19;;;;;;;2.67;1.00;;;13.10;87.70;;;;;;4067675;29;20052;-77
2024/03/16 12:26:25;;;;;;;0.95;0.30;;;13.10;88.30;;;;;;4036803;29;20204;-78
2024/03/16 12:28:29;;;;;;;1.48;0.40;;;13.00;87.70;;;;;;4052338;29;20506;-77
2024/03/16 12:30:32;;;;;;;1.30;0.43;;;13.00;89.30;;;;;;4036855;29;20434;-76
2024/03/16 12:32:34;;;;;;;2.05;0.38;;;13.30;88.80;;;;;;4067758;29;20055;-80
2024/03/16 12:34:36;;;;;;;1.35;0.40;;;13.50;88.10;;;;;;4036764;29;20086;-77
2024/03/16 12:36:38;;;;;;;1.05;0.40;;;13.60;87.10;;;;;;4036258;29;20053;-77
2024/03/16 12:38:39;;;;;;;0.93;0.50;;;13.50;86.40;;;;;;4021395;29;20101;-78
2024/03/16 12:40:42;;;;;;;1.65;0.47;;;13.50;87.30;;;;;;4021615;29;20121;-77
2024/03/16 12:42:43;;;;;;;1.67;0.52;;;13.50;85.80;;;;;;4036318;29;20051;-77
2024/03/16 12:44:46;;;;;;;1.83;0.68;;;13.50;85.60;;;;;;4052158;29;20048;-75
2024/03/16 12:46:48;;;;;;;1.10;0.40;;;13.70;86.10;;;;;;4037203;29;20153;-79
2024/03/16 12:48:50;;;;;;;1.25;0.60;;;13.80;86.30;;;;;;4051598;29;20055;-77
2024/03/16 12:50:52;;;;;;;1.63;0.25;;;13.80;87.20;;;;;;4036646;29;20077;-77
2024/03/16 12:52:53;;;;;;;0.95;0.38;;;13.90;84.20;;;;;;4051879;29;20045;-77
2024/03/16 12:54:55;;;;;;;2.80;0.52;;;13.70;82.00;;;;;;4036070;29;20151;-79
2024/03/16 12:56:56;;;;;;;0.45;0.22;;;13.70;83.30;;;;;;4036834;29;20460;-75
2024/03/16 12:58:58;;;;;;;1.13;0.50;;;13.90;83.40;;;;;;4043922;29;20063;-78
2024/03/16 13:00:59;;;;;;;1.02;0.38;;;13.90;83.10;;;;;;4053054;29;20044;-77
2024/03/16 13:03:02;;;;;;;0.98;0.40;;;13.80;80.90;;;;;;4039657;29;20053;-77
2024/03/16 13:05:04;;;;;;;0.70;0.30;;;13.80;83.00;;;;;;4054636;29;20582;-77
2024/03/16 13:07:06;;;;;;;1.38;0.45;;;13.90;82.60;;;;;;4054402;29;20048;-77
2024/03/16 13:09:10;;;;;;;1.17;0.50;;;14.10;82.10;;;;;;4054899;29;20056;-77
2024/03/16 13:11:12;;;;;;;1.08;0.30;;;14.30;81.40;;;;;;4055497;29;20189;-76
2024/03/16 13:13:13;;;;;;;1.70;0.57;;;14.40;78.40;;;;;;4054271;29;20562;-76
2024/03/16 13:15:17;;;;;;;1.45;0.47;;;14.30;78.00;;;;;;4086077;29;20047;-77
2024/03/16 13:17:18;;;;;;;1.98;0.50;;;14.20;77.40;;;;;;4070391;29;20454;-77
2024/03/16 13:19:23;;;;;;;1.25;0.40;;;14.30;78.90;;;;;;4054176;29;20052;-78
2024/03/16 13:21:24;;;;;;;1.40;0.55;;;14.10;79.00;;;;;;4085900;29;20143;-78
2024/03/16 13:23:26;;;;;;;1.33;0.50;;;14.10;78.90;;;;;;4054614;29;20052;-79
2024/03/16 13:25:27;;;;;;;1.58;0.50;;;14.00;78.20;;;;;;4054798;29;20474;-76
2024/03/16 13:27:29;;;;;;;1.05;0.40;;;13.90;79.40;;;;;;4053954;29;20052;-79
2024/03/16 13:29:30;;;;;;;1.77;0.60;;;13.90;79.60;;;;;;4085864;29;20051;-78
2024/03/16 13:31:32;;;;;;;2.05;0.60;;;13.80;80.90;;;;;;4054574;29;20524;-77
2024/03/16 13:33:34;;;;;;;1.60;0.40;;;13.90;81.60;;;;;;4054092;29;20464;-78
2024/03/16 13:35:36;;;;;;;0.73;0.40;;;13.80;80.60;;;;;;4054369;29;20055;-78
2024/03/16 13:37:40;;;;;;;0.90;0.30;;;13.80;81.50;;;;;;4070274;29;20050;-79
2024/03/16 13:39:42;;;;;;;1.60;0.32;;;13.80;82.00;;;;;;4053856;29;20136;-75
2024/03/16 13:41:44;;;;;;;1.30;0.50;;;13.60;81.10;;;;;;4085599;29;20043;-76
2024/03/16 13:43:46;;;;;;;1.02;0.40;;;13.60;81.50;;;;;;4054324;29;20514;-77
2024/03/16 13:45:47;;;;;;;1.38;0.50;;;13.60;81.60;;;;;;4069225;29;20044;-78
2024/03/16 13:47:49;;;;;;;1.52;0.57;;;13.70;82.70;;;;;;4054221;29;20053;-79
2024/03/16 13:49:50;;;;;;;2.47;0.50;;;13.70;81.60;;;;;;4067479;29;20056;-77
2024/03/16 13:51:52;;;;;;;1.45;0.40;;;13.70;81.70;;;;;;4038227;29;20045;-78
2024/03/16 13:53:54;;;;;;;0.82;0.25;;;13.80;80.80;;;;;;4053880;29;20462;-78
2024/03/16 13:55:57;;;;;;;1.75;0.30;;;13.80;81.30;;;;;;4047596;29;20096;-79
2024/03/16 13:57:58;;;;;;;0.88;0.40;;;14.00;80.10;;;;;;4053985;29;20139;-79
2024/03/16 14:00:05;;;;;;;0.73;0.40;;;14.20;80.70;;;;;;4069387;29;20044;-79
2024/03/16 14:02:06;;;;;;;1.13;0.32;;;15.20;78.50;;;;;;4085611;29;20491;-78
2024/03/16 14:04:08;;;;;;;0.80;0.32;;;16.50;77.70;;;;;;4069202;29;20169;-76
2024/03/16 14:06:09;;;;;;;1.30;0.47;;;18.50;71.60;;;;;;4070061;29;20109;-79
2024/03/16 14:08:12;;;;;;;1.20;0.28;;;16.50;71.10;;;;;;4069415;29;20055;-78
2024/03/16 14:10:13;;;;;;;1.23;0.60;;;15.40;76.80;;;;;;4069037;29;20056;-77
2024/03/16 14:12:15;;;;;;;1.13;0.60;;;18.30;74.60;;;;;;4082361;29;20509;-77
2024/03/16 14:14:18;;;;;;;0.82;0.30;;;22.40;59.10;;;;;;4080447;29;20052;-78
2024/03/16 14:16:20;;;;;;;0.93;0.52;;;21.60;53.70;;;;;;4069213;29;20387;-78
2024/03/16 14:18:21;;;;;;;1.45;0.52;;;20.30;58.70;;;;;;4069186;29;20096;-79
2024/03/16 14:20:30;;;;;;;1.38;0.60;;;19.40;60.40;;;;;;4068965;29;20051;-79
2024/03/16 14:22:31;;;;;;;1.65;0.60;;;20.00;58.70;;;;;;4070968;29;20052;-79
2024/03/16 14:24:33;;;;;;;2.20;0.50;;;20.80;56.00;;;;;;4068730;29;20074;-79
2024/03/16 14:26:34;;;;;;;1.40;0.40;;;18.90;57.90;;;;;;4069257;29;20496;-78
2024/03/16 14:28:36;;;;;;;2.35;0.60;;;17.40;63.50;;;;;;4076482;29;20131;-79
2024/03/16 14:30:37;;;;;;;2.03;0.45;;;16.60;65.20;;;;;;4068361;29;20088;-77
2024/03/16 14:32:38;;;;;;;1.38;0.50;;;16.00;68.90;;;;;;4053172;29;20075;-79
2024/03/16 14:34:41;;;;;;;1.42;0.70;;;16.10;68.10;;;;;;4069607;29;20135;-78
2024/03/16 14:36:45;;;;;;;1.30;1.10;;;17.40;66.80;;;;;;4053714;29;20127;-80
2024/03/16 14:38:47;;;;;;;1.52;1.20;;;21.30;56.80;;;;;;4053629;29;20100;-84
2024/03/16 14:40:48;;;;;;;1.10;0.50;;;23.40;50.90;;;;;;4056550;29;20080;-84
2024/03/16 14:42:51;;;;;;;1.55;0.90;;;19.90;50.40;;;;;;4095662;29;20127;-85
2024/03/16 14:44:54;;;;;;;136.40;125.68;;;19.60;53.60;;;;;;4068807;29;20487;-80
2024/03/16 14:46:57;;;;;;;82.78;78.50;;;21.00;52.80;;;;;;4083586;29;20517;-81
2024/03/16 14:48:58;;;;;;;67.25;63.83;;;20.40;52.90;;;;;;4055648;29;20132;-81
2024/03/16 14:51:01;;;;;;;126.60;120.05;;;22.10;50.70;;;;;;4076194;29;20051;-82
2024/03/16 14:53:04;;;;;;;10.15;9.52;;;22.40;49.20;;;;;;4068608;29;20052;-83
2024/03/16 14:55:07;;;;;;;48.13;45.70;;;22.10;48.30;;;;;;4053645;29;20048;-83
2024/03/16 14:57:09;;;;;;;87.20;82.63;;;21.40;48.50;;;;;;4051402;29;20064;-77
2024/03/16 14:59:13;;;;;;;274.75;183.32;;;21.80;48.00;;;;;;4066220;29;20126;-76
2024/03/16 15:01:14;;;;;;;147.90;133.40;;;20.50;48.40;;;;;;4051459;29;20048;-78
2024/03/16 15:03:16;;;;;;;41.33;39.13;;;20.20;50.10;;;;;;4050742;29;20051;-76
2024/03/16 15:05:18;;;;;;;2.42;0.45;;;19.20;51.70;;;;;;4051063;29;20052;-76
2024/03/16 15:07:20;;;;;;;15.45;14.57;;;18.50;53.40;;;;;;4090431;29;20047;-76
2024/03/16 15:09:22;;;;;;;1.00;0.40;;;17.70;56.10;;;;;;4081999;29;20047;-76
2024/03/16 15:11:24;;;;;;;1.52;0.50;;;17.60;57.50;;;;;;4066879;29;20052;-76
2024/03/16 15:13:25;;;;;;;2.88;2.67;;;17.50;57.80;;;;;;4050620;29;20104;-78
2024/03/16 15:15:27;;;;;;;1.70;1.00;;;17.60;58.00;;;;;;4050003;29;20122;-77
2024/03/16 15:17:28;;;;;;;1.15;0.60;;;18.50;56.30;;;;;;4083151;29;20169;-77
2024/03/16 15:19:30;;;;;;;1.23;0.60;;;19.20;53.40;;;;;;4048444;29;20057;-78
2024/03/16 15:21:31;;;;;;;2.67;0.68;;;20.10;52.10;;;;;;4051217;29;20052;-75
2024/03/16 15:23:33;;;;;;;1.58;0.70;;;20.90;51.30;;;;;;4049926;29;20049;-74
2024/03/16 15:25:39;;;;;;;1.58;0.63;;;21.10;49.80;;;;;;4050393;29;20124;-75
2024/03/16 15:27:55;;;;;;;1.65;0.60;;;18.60;52.60;;;;;;4062101;29;20059;-76
2024/03/16 15:29:56;;;;;;;1.27;0.47;;;18.40;54.30;;;;;;4056400;29;20056;-78
2024/03/16 15:31:58;;;;;;;1.45;0.60;;;17.30;56.20;;;;;;4050418;29;20048;-78
2024/03/16 15:33:59;;;;;;;2.63;1.25;;;17.50;57.00;;;;;;4068616;29;20052;-86
2024/03/16 15:36:01;;;;;;;1.05;0.50;;;16.70;57.90;;;;;;4056770;29;20138;-84
2024/03/16 15:38:03;;;;;;;1.40;0.60;;;16.70;57.50;;;;;;4066179;29;20047;-81
2024/03/16 15:40:06;;;;;;;2.65;0.60;;;17.10;57.50;;;;;;4067936;29;20060;-82
2024/03/16 15:42:07;;;;;;;2.20;0.70;;;17.60;57.30;;;;;;4082736;29;20168;-81
2024/03/16 15:44:10;;;;;;;0.98;0.50;;;17.60;57.30;;;;;;4071279;29;20056;-79
2024/03/16 15:46:11;;;;;;;1.25;0.60;;;18.10;55.90;;;;;;4053137;29;20140;-78
2024/03/16 15:48:13;;;;;;;1.52;0.60;;;17.80;55.70;;;;;;4052485;29;20060;-77
2024/03/16 15:50:16;;;;;;;2.97;0.90;;;18.10;56.10;;;;;;4057012;29;20152;-77
2024/03/16 15:52:18;;;;;;;1.00;0.50;;;18.40;55.40;;;;;;4066149;29;20063;-76
2024/03/16 15:54:19;;;;;;;1.13;0.70;;;18.30;54.10;;;;;;4076676;29;20092;-77
2024/03/16 15:56:20;;;;;;;1.73;0.65;;;18.00;55.10;;;;;;4082358;29;20048;-77
2024/03/16 15:58:22;;;;;;;1.20;0.50;;;17.60;56.60;;;;;;4065461;29;20092;-79
2024/03/16 16:00:23;;;;;;;1.13;0.47;;;17.50;57.20;;;;;;4081495;29;20055;-77
2024/03/16 16:02:25;;;;;;;0.90;0.40;;;16.50;60.00;;;;;;4081417;29;20079;-77
2024/03/16 16:04:27;;;;;;;1.25;0.55;;;16.30;62.60;;;;;;4066322;29;20052;-76
2024/03/16 16:06:29;;;;;;;1.30;0.52;;;15.90;64.40;;;;;;4070166;29;20104;-79
2024/03/16 16:08:30;;;;;;;1.58;0.57;;;15.60;66.40;;;;;;4050856;29;20053;-78
2024/03/16 16:10:32;;;;;;;1.88;0.55;;;15.00;68.40;;;;;;4050673;29;20140;-76
2024/03/16 16:12:33;;;;;;;1.67;0.70;;;14.60;71.30;;;;;;4049578;29;20734;-76
2024/03/16 16:14:35;;;;;;;1.42;0.70;;;14.70;72.60;;;;;;4034894;29;20064;-76
2024/03/16 16:16:36;;;;;;;2.22;0.60;;;14.50;73.70;;;;;;4058855;29;20056;-77
2024/03/16 16:18:40;;;;;;;0.80;0.50;;;14.30;75.30;;;;;;4068620;29;20048;-79
2024/03/16 16:20:42;;;;;;;3.97;0.60;;;14.10;76.40;;;;;;4055456;29;20120;-77
2024/03/16 16:22:44;;;;;;;2.13;0.73;;;13.90;77.80;;;;;;4072745;29;20047;-76
2024/03/16 16:24:47;;;;;;;1.70;0.70;;;13.90;78.50;;;;;;4053046;29;20104;-80
2024/03/16 16:26:50;;;;;;;2.05;0.70;;;13.90;79.10;;;;;;4054054;29;20166;-78
2024/03/16 16:28:51;;;;;;;2.30;0.70;;;13.80;79.60;;;;;;4080337;29;20074;-80
2024/03/16 16:30:53;;;;;;;1.73;0.60;;;13.90;79.70;;;;;;4080984;29;20659;-78
2024/03/16 16:32:56;;;;;;;1.85;0.80;;;13.90;80.20;;;;;;4053244;29;20053;-80
2024/03/16 16:34:58;;;;;;;1.75;0.60;;;13.70;80.10;;;;;;4051735;29;20057;-78
2024/03/16 16:36:59;;;;;;;2.00;0.73;;;13.30;82.60;;;;;;4053201;29;20071;-77